Time;durP1;ratioP1;P1;durP2;ratioP2;P2;SDS_P1;SDS_P2;PMS_P1;PMS_P2;Temp;Humidity;BMP_temperature;BMP_pressure;BME280_temperature;BME280_humidity;BME280_pressure;Samples;Min_cycle;Max_cycle;Signal;HPM_P1;HPM_P2
2024/03/31 00:04:10;;;;;;;3.80;2.57;;;;;;;17.46;57.26;99818.13;10452895;28;20275;-62
2024/03/31 00:09:10;;;;;;;4.30;2.20;;;;;;;17.44;57.06;99820.34;10452638;28;20777;-61
2024/03/31 00:14:10;;;;;;;4.10;2.73;;;;;;;17.47;57.78;99816.25;10452554;28;20489;-61
2024/03/31 00:19:11;;;;;;;2.97;1.88;;;;;;;17.46;56.65;99806.63;10451999;28;20033;-61
2024/03/31 00:24:11;;;;;;;3.10;2.00;;;;;;;17.42;57.40;99797.63;10452035;28;20032;-61
2024/03/31 00:29:11;;;;;;;3.53;1.80;;;;;;;17.43;56.89;99794.63;10451637;28;20461;-61
2024/03/31 00:34:13;;;;;;;2.80;2.03;;;;;;;17.46;57.25;99785.19;10451760;28;20287;-61
2024/03/31 00:39:13;;;;;;;3.00;2.00;;;;;;;17.50;56.20;99776.19;10446786;28;20094;-61
2024/03/31 00:44:13;;;;;;;3.03;2.13;;;;;;;17.48;56.96;99774.94;10451435;28;20029;-60
2024/03/31 00:49:14;;;;;;;3.63;1.87;;;;;;;17.45;57.29;99773.69;10432842;28;20275;-61
2024/03/31 00:54:15;;;;;;;2.97;1.85;;;;;;;17.47;56.95;99770.69;10450657;28;20678;-61
2024/03/31 00:59:15;;;;;;;4.43;1.80;;;;;;;17.45;56.78;99776.34;10450901;28;20025;-61
2024/03/31 01:04:16;;;;;;;2.20;1.70;;;;;;;17.47;57.10;99786.75;10450508;28;20283;-61
2024/03/31 01:09:16;;;;;;;2.47;1.35;;;;;;;17.42;57.51;99771.63;10450539;28;20271;-61
2024/03/31 01:14:17;;;;;;;3.00;1.67;;;;;;;17.46;57.00;99777.16;10432610;28;20044;-61
2024/03/31 01:19:17;;;;;;;3.50;1.73;;;;;;;17.47;55.81;99792.13;10432172;28;20328;-61
2024/03/31 01:24:17;;;;;;;3.10;1.87;;;;;;;17.50;56.89;99805.69;10432471;28;20029;-61
2024/03/31 01:29:18;;;;;;;3.60;2.13;;;;;;;17.50;56.45;99816.41;10449541;28;20275;-61
2024/03/31 01:34:18;;;;;;;2.70;1.90;;;;;;;17.48;56.69;99815.13;10432354;28;20275;-61
2024/03/31 01:39:18;;;;;;;3.05;2.20;;;;;;;17.44;57.28;99800.78;10448828;28;20287;-61
2024/03/31 01:44:20;;;;;;;3.20;1.98;;;;;;;17.47;56.52;99803.63;10431788;28;20032;-61
2024/03/31 01:49:20;;;;;;;3.20;2.00;;;;;;;17.47;56.24;99781.41;10449353;28;20025;-61
2024/03/31 01:54:21;;;;;;;3.07;1.90;;;;;;;17.45;56.07;99781.72;10449424;28;20029;-61
2024/03/31 01:59:22;;;;;;;2.30;1.73;;;;;;;17.44;56.71;99779.34;10449409;28;20132;-60
2024/03/31 02:04:22;;;;;;;3.38;2.10;;;;;;;17.46;56.18;99782.50;10431496;28;20445;-60
2024/03/31 02:09:22;;;;;;;3.83;1.85;;;;;;;17.52;56.11;99778.56;10449142;28;20461;-60
2024/03/31 02:14:23;;;;;;;2.37;1.77;;;;;;;17.54;55.86;99789.78;10448967;28;20060;-61
2024/03/31 02:19:23;;;;;;;3.57;1.80;;;;;;;17.54;57.18;99803.19;10448498;28;20039;-61
2024/03/31 02:24:23;;;;;;;2.60;1.80;;;;;;;17.48;56.39;99807.88;10449088;28;20272;-61
2024/03/31 02:29:24;;;;;;;3.17;1.93;;;;;;;17.50;56.58;99789.59;10430846;28;21062;-61
2024/03/31 02:34:25;;;;;;;2.83;1.88;;;;;;;17.49;55.84;99795.28;10431101;28;20279;-60
2024/03/31 02:39:25;;;;;;;3.37;2.10;;;;;;;17.47;56.75;99792.91;10448692;28;20032;-61
2024/03/31 02:44:25;;;;;;;3.03;1.80;;;;;;;17.49;55.90;99777.31;10447954;28;20301;-61
2024/03/31 02:49:26;;;;;;;3.17;2.00;;;;;;;17.48;55.96;99782.97;10448647;28;20282;-61
2024/03/31 02:54:26;;;;;;;2.30;1.50;;;;;;;17.47;56.21;99800.94;10453025;28;20033;-61
2024/03/31 02:59:26;;;;;;;2.07;1.27;;;;;;;17.46;55.41;99801.25;10455935;28;20036;-61
2024/03/31 03:04:26;;;;;;;2.53;1.80;;;;;;;17.48;56.56;99801.75;10455295;28;20283;-61
2024/03/31 03:09:27;;;;;;;2.40;1.63;;;;;;;17.47;56.64;99794.81;10455508;28;20271;-60
2024/03/31 03:14:27;;;;;;;2.37;1.60;;;;;;;17.44;55.84;99785.50;10454681;28;20705;-58
2024/03/31 03:19:27;;;;;;;2.92;1.45;;;;;;;17.47;56.84;99776.81;10454711;28;20274;-61
2024/03/31 03:24:28;;;;;;;2.50;1.47;;;;;;;17.45;55.88;99776.34;10454459;28;20625;-60
2024/03/31 03:29:28;;;;;;;3.60;1.65;;;;;;;17.43;55.73;99767.84;10454395;28;20290;-61
2024/03/31 03:34:28;;;;;;;2.23;1.43;;;;;;;17.47;56.25;99765.31;10453885;28;20032;-60
2024/03/31 03:39:29;;;;;;;2.73;1.83;;;;;;;17.45;56.64;99754.91;10454201;28;20773;-61
2024/03/31 03:44:29;;;;;;;2.40;1.20;;;;;;;17.43;56.05;99756.34;10453683;28;20275;-61
2024/03/31 03:49:30;;;;;;;2.13;1.50;;;;;;;17.46;56.32;99734.25;10454141;28;20389;-61
2024/03/31 03:54:30;;;;;;;2.58;1.20;;;;;;;17.46;55.58;99735.06;10435862;28;20315;-61
2024/03/31 03:59:30;;;;;;;3.87;2.27;;;;;;;17.42;56.43;99736.78;10453321;28;20025;-61
2024/03/31 04:04:31;;;;;;;2.43;1.23;;;;;;;17.44;56.64;99741.84;10452066;28;20267;-61
2024/03/31 04:09:31;;;;;;;2.78;1.33;;;;;;;17.43;55.54;99746.41;10452752;28;20876;-60
2024/03/31 04:14:31;;;;;;;1.75;1.17;;;;;;;17.42;56.75;99750.19;10452402;28;20416;-61
2024/03/31 04:19:32;;;;;;;2.13;1.10;;;;;;;17.43;56.17;99727.66;10434731;28;20025;-61
2024/03/31 04:24:32;;;;;;;2.47;1.23;;;;;;;17.44;56.89;99733.78;10451976;28;20268;-61
2024/03/31 04:29:33;;;;;;;1.83;1.33;;;;;;;17.40;56.76;99747.00;10452183;28;20091;-61
2024/03/31 04:34:33;;;;;;;3.00;1.10;;;;;;;17.40;55.96;99743.53;10451587;28;20271;-61
2024/03/31 04:39:33;;;;;;;2.20;1.40;;;;;;;17.41;56.31;99735.22;10451561;28;20275;-61
2024/03/31 04:44:34;;;;;;;2.33;1.20;;;;;;;17.43;55.38;99738.38;10451198;28;20275;-61
2024/03/31 04:49:34;;;;;;;2.13;1.07;;;;;;;17.38;56.16;99735.81;10433409;28;20393;-60
2024/03/31 04:54:34;;;;;;;2.53;1.07;;;;;;;17.43;55.85;99735.69;10450937;28;20281;-61
2024/03/31 04:59:35;;;;;;;1.77;1.13;;;;;;;17.41;56.06;99724.50;10433145;28;20374;-61
2024/03/31 05:04:35;;;;;;;1.30;0.90;;;;;;;17.41;55.58;99724.50;10432466;28;20029;-61
2024/03/31 05:09:35;;;;;;;2.93;1.40;;;;;;;17.46;56.26;99721.66;10450770;28;20029;-61
2024/03/31 05:14:36;;;;;;;1.60;1.10;;;;;;;17.46;56.07;99713.63;10449277;28;20798;-61
2024/03/31 05:19:36;;;;;;;2.95;1.20;;;;;;;17.50;55.77;99724.50;10450357;28;20298;-61
2024/03/31 05:24:37;;;;;;;1.57;0.90;;;;;;;17.48;55.47;99719.44;10429588;28;20029;-61
2024/03/31 05:29:37;;;;;;;2.35;1.50;;;;;;;17.46;55.53;99712.81;10429002;28;20314;-61
2024/03/31 05:34:37;;;;;;;2.07;1.23;;;;;;;17.46;56.32;99708.25;10430139;28;20094;-61
2024/03/31 05:39:38;;;;;;;1.93;1.23;;;;;;;17.46;56.24;99705.56;10449262;28;20639;-60
2024/03/31 05:44:38;;;;;;;1.35;1.10;;;;;;;17.43;55.57;99687.44;10448365;28;20295;-61
2024/03/31 05:49:38;;;;;;;1.57;1.10;;;;;;;17.47;56.41;99688.38;10448754;28;20028;-60
2024/03/31 05:54:38;;;;;;;1.20;0.83;;;;;;;17.47;55.45;99658.13;10432035;28;20282;-61
2024/03/31 05:59:39;;;;;;;1.63;0.90;;;;;;;17.43;55.60;99665.22;10449022;28;20279;-61
2024/03/31 06:04:40;;;;;;;1.33;0.83;;;;;;;17.47;55.48;99663.47;10448360;28;20036;-61
2024/03/31 06:09:45;;;;;;;3.75;1.48;;;;;;;17.51;56.41;99670.56;10431634;28;20950;-62
2024/03/31 06:14:45;;;;;;;7.13;1.38;;;;;;;17.53;57.14;99671.06;10448784;28;20408;-61
2024/03/31 06:19:45;;;;;;;5.88;1.50;;;;;;;17.63;57.78;99675.31;10448970;28;20024;-63
2024/03/31 06:24:46;;;;;;;9.20;1.57;;;;;;;17.67;57.77;99670.13;10448712;28;20029;-62
2024/03/31 06:29:50;;;;;;;15.45;2.70;;;;;;;17.70;58.03;99661.50;10456514;28;20275;-61
2024/03/31 06:34:51;;;;;;;7.13;1.80;;;;;;;17.71;57.33;99663.06;10456388;28;20010;-62
2024/03/31 06:39:52;;;;;;;7.82;2.25;;;;;;;17.69;57.61;99668.75;10438748;28;20020;-59
2024/03/31 06:44:52;;;;;;;4.90;1.42;;;;;;;17.49;57.31;99663.94;10476248;28;20028;-61
2024/03/31 06:49:52;;;;;;;9.90;2.30;;;;;;;17.41;58.02;99662.06;10490742;28;20032;-61
2024/03/31 06:54:55;;;;;;;12.03;2.60;;;;;;;17.38;57.77;99663.47;10477147;28;20278;-61
2024/03/31 06:59:55;;;;;;;11.13;2.33;;;;;;;17.29;58.28;99660.00;10480467;28;20278;-61
2024/03/31 07:04:55;;;;;;;8.77;2.50;;;;;;;17.29;59.23;99657.31;10458659;28;20037;-60
2024/03/31 07:09:56;;;;;;;20.10;3.20;;;;;;;17.30;59.81;99656.22;10454556;28;20032;-61
2024/03/31 07:14:56;;;;;;;8.97;2.57;;;;;;;17.30;59.23;99660.78;10407421;28;20296;-61
2024/03/31 07:19:56;;;;;;;12.30;3.80;;;;;;;17.29;59.54;99659.22;10416391;28;20283;-60
2024/03/31 07:24:57;;;;;;;16.70;4.40;;;;;;;17.20;59.19;99657.28;10436775;28;20292;-61
2024/03/31 07:29:57;;;;;;;13.60;4.40;;;;;;;17.19;58.69;99639.66;10393515;28;20280;-61
2024/03/31 07:34:57;;;;;;;9.63;3.53;;;;;;;17.21;58.13;99639.31;10405007;28;20639;-61
2024/03/31 07:39:57;;;;;;;11.53;3.40;;;;;;;17.21;58.26;99633.97;10386104;28;20350;-61
2024/03/31 07:44:58;;;;;;;11.03;3.77;;;;;;;17.19;58.20;99636.97;10410108;28;20454;-61
2024/03/31 07:49:59;;;;;;;7.30;2.97;;;;;;;17.19;57.51;99641.53;10393231;28;20276;-61
2024/03/31 07:54:59;;;;;;;13.95;3.90;;;;;;;17.17;58.52;99622.31;10413467;28;20025;-61
2024/03/31 08:00:00;;;;;;;12.88;3.88;;;;;;;17.13;58.82;99629.38;10443425;28;20572;-61
2024/03/31 08:05:00;;;;;;;11.98;3.40;;;;;;;17.10;57.58;99624.66;10419101;28;20778;-62
2024/03/31 08:10:02;;;;;;;8.43;3.75;;;;;;;17.09;58.15;99621.19;10430085;28;20029;-61
2024/03/31 08:15:03;;;;;;;6.90;3.05;;;;;;;17.06;58.77;99619.13;10394796;28;20037;-61
2024/03/31 08:20:04;;;;;;;8.75;3.22;;;;;;;17.05;58.64;99617.56;10425657;28;20072;-61
2024/03/31 08:25:05;;;;;;;7.35;3.15;;;;;;;17.03;57.86;99611.69;10419020;28;20013;-61
2024/03/31 08:30:05;;;;;;;11.73;2.97;;;;;;;17.01;58.35;99602.41;10413759;28;20025;-60
2024/03/31 08:35:06;;;;;;;10.77;3.40;;;;;;;17.00;57.79;99617.69;10428626;28;20516;-61
2024/03/31 08:40:07;;;;;;;7.78;3.22;;;;;;;17.05;58.50;99606.84;10413843;28;20035;-61
2024/03/31 08:45:11;;;;;;;7.90;3.08;;;;;;;17.06;58.11;99621.03;10434096;28;20041;-60
2024/03/31 08:50:12;;;;;;;6.78;3.70;;;;;;;17.05;58.88;99622.09;10411648;28;20063;-61
2024/03/31 08:55:12;;;;;;;5.88;2.88;;;;;;;17.00;59.63;99616.91;10394087;28;20492;-61
2024/03/31 09:00:13;;;;;;;6.30;2.83;;;;;;;16.98;58.62;99617.22;10429936;28;20071;-59
2024/03/31 09:05:13;;;;;;;4.60;3.13;;;;;;;16.99;59.75;99615.31;10442074;28;20028;-61
2024/03/31 09:10:14;;;;;;;4.53;2.65;;;;;;;16.95;58.97;99612.47;10412469;28;20504;-62
2024/03/31 09:15:15;;;;;;;4.97;2.72;;;;;;;16.93;58.93;99620.84;10428704;28;20603;-59
2024/03/31 09:20:15;;;;;;;4.72;2.38;;;;;;;16.93;58.79;99606.66;10406975;28;20044;-62
2024/03/31 09:25:16;;;;;;;5.45;2.58;;;;;;;16.99;58.91;99604.63;10418637;28;20042;-61
2024/03/31 09:30:16;;;;;;;4.47;1.92;;;;;;;16.99;58.37;99588.53;10412966;28;20419;-60
2024/03/31 09:35:16;;;;;;;4.73;2.20;;;;;;;16.99;59.99;99575.16;10430680;28;20013;-61
2024/03/31 09:40:17;;;;;;;3.17;2.10;;;;;;;16.96;59.53;99584.59;10438936;28;20267;-61
2024/03/31 09:45:18;;;;;;;4.32;2.13;;;;;;;16.95;58.63;99578.47;10432391;28;20038;-62
2024/03/31 09:50:21;;;;;;;3.60;1.80;;;;;;;16.98;59.42;99571.69;10407649;28;20227;-61
2024/03/31 09:55:23;;;;;;;3.28;2.40;;;;;;;16.99;58.53;99570.59;10409406;28;20024;-61
2024/03/31 10:00:24;;;;;;;6.68;2.42;;;;;;;16.98;59.51;99555.63;10430384;28;20122;-60
2024/03/31 10:05:32;;;;;;;2.80;1.60;;;;;;;16.99;58.86;99562.56;10447661;28;20078;-61
2024/03/31 10:10:34;;;;;;;3.63;2.28;;;;;;;17.04;58.65;99564.28;10434050;28;20108;-61
2024/03/31 10:15:35;;;;;;;3.65;1.95;;;;;;;17.09;58.66;99564.16;10434065;28;20094;-61
2024/03/31 10:20:36;;;;;;;4.15;2.03;;;;;;;17.14;58.78;99570.13;10428571;28;20032;-60
2024/03/31 10:25:36;;;;;;;2.60;2.00;;;;;;;17.17;58.24;99564.16;10423073;28;20033;-61
2024/03/31 10:30:36;;;;;;;3.20;2.17;;;;;;;17.22;57.88;99555.97;10400450;28;20167;-62
2024/03/31 10:35:39;;;;;;;4.22;2.20;;;;;;;17.29;58.78;99566.22;10452632;28;20062;-61
2024/03/31 10:40:39;;;;;;;5.20;1.80;;;;;;;17.29;59.31;99568.91;10428550;28;20025;-61
2024/03/31 10:45:44;;;;;;;4.85;2.58;;;;;;;17.34;59.00;99554.56;10408296;28;20030;-61
2024/03/31 10:50:45;;;;;;;2.10;1.38;;;;;;;17.38;58.00;99567.00;10412773;28;20480;-62
2024/03/31 10:55:45;;;;;;;11.98;2.60;;;;;;;17.44;58.50;99557.72;10418569;28;20108;-57
2024/03/31 11:00:46;;;;;;;39.75;5.82;;;;;;;17.53;59.32;99563.06;10411977;28;20033;-56
2024/03/31 11:05:46;;;;;;;13.93;3.95;;;;;;;17.52;59.48;99545.41;10394860;28;20087;-59
2024/03/31 11:10:47;;;;;;;20.15;3.58;;;;;;;17.55;58.78;99539.44;10393697;28;20167;-60
2024/03/31 11:15:47;;;;;;;15.68;3.45;;;;;;;17.56;58.73;99541.00;10410696;28;20056;-59
2024/03/31 11:20:48;;;;;;;16.13;3.77;;;;;;;17.58;59.16;99527.28;10411704;28;20040;-59
2024/03/31 11:25:48;;;;;;;12.70;4.53;;;;;;;17.64;59.00;99516.09;10404491;28;20318;-62
2024/03/31 11:30:49;;;;;;;19.08;4.07;;;;;;;17.71;59.19;99515.63;10390425;28;20028;-59
2024/03/31 11:35:50;;;;;;;17.88;4.25;;;;;;;17.74;58.88;99523.81;10407201;28;20025;-60
2024/03/31 11:40:50;;;;;;;16.30;4.03;;;;;;;17.74;58.38;99506.94;10410448;28;20029;-61
2024/03/31 11:45:51;;;;;;;10.10;4.15;;;;;;;17.77;59.32;99503.63;10411593;28;20032;-61
2024/03/31 11:50:52;;;;;;;9.85;3.60;;;;;;;17.81;58.52;99502.66;10411353;28;20022;-61
2024/03/31 11:55:52;;;;;;;10.32;4.35;;;;;;;17.83;57.75;99492.41;10411452;28;20025;-61
2024/03/31 12:00:53;;;;;;;8.88;4.47;;;;;;;17.86;58.55;99485.59;10411197;28;20465;-62
2024/03/31 12:05:53;;;;;;;8.52;3.63;;;;;;;17.76;57.92;99475.25;10411005;28;20037;-62
2024/03/31 12:10:56;;;;;;;10.02;4.15;;;;;;;17.69;58.15;99475.72;10409011;28;20025;-61
2024/03/31 12:15:57;;;;;;;11.20;4.10;;;;;;;17.65;58.35;99471.31;10393257;28;20076;-62
2024/03/31 12:20:57;;;;;;;11.25;4.35;;;;;;;17.62;58.95;99456.63;10392349;28;20115;-61
2024/03/31 12:25:58;;;;;;;8.80;4.57;;;;;;;17.58;58.56;99461.06;10410085;28;20760;-61
2024/03/31 12:30:59;;;;;;;6.57;3.20;;;;;;;17.53;58.47;99447.84;10413198;28;20310;-60
2024/03/31 12:36:00;;;;;;;7.75;4.25;;;;;;;17.50;58.72;99453.81;10394887;28;20295;-61
2024/03/31 12:41:00;;;;;;;10.90;4.60;;;;;;;17.43;57.82;99435.56;10408438;28;20156;-62
2024/03/31 12:46:08;;;;;;;6.43;3.78;;;;;;;17.37;59.56;99438.72;10408332;28;20025;-62
2024/03/31 12:51:09;;;;;;;11.00;4.13;;;;;;;17.32;58.64;99439.66;10391399;28;20033;-60
2024/03/31 12:56:09;;;;;;;13.48;4.93;;;;;;;17.30;58.96;99425.03;10392023;28;20029;-60
2024/03/31 13:01:10;;;;;;;30.33;6.60;;;;;;;17.35;58.13;99422.94;10389817;28;20171;-63
2024/03/31 13:06:10;;;;;;;25.63;6.38;;;;;;;17.60;59.14;99412.50;10397391;28;20136;-62
2024/03/31 13:11:11;;;;;;;31.08;8.38;;;;;;;17.73;59.42;99403.47;10388854;28;20027;-61
2024/03/31 13:16:12;;;;;;;23.23;7.15;;;;;;;17.93;60.59;99404.66;10380795;28;20396;-63
2024/03/31 13:21:12;;;;;;;37.10;14.35;;;;;;;18.18;60.91;99400.28;10396185;28;20030;-66
2024/03/31 13:26:12;;;;;;;55.17;24.17;;;;;;;18.19;60.93;99389.22;10395274;28;20034;-62
2024/03/31 13:31:13;;;;;;;45.77;20.00;;;;;;;18.28;61.42;99386.50;10404222;28;20272;-62
2024/03/31 13:36:13;;;;;;;58.93;20.83;;;;;;;18.32;60.93;99379.34;10402841;28;20402;-63
2024/03/31 13:41:16;;;;;;;43.92;16.70;;;;;;;18.31;61.14;99378.56;10399151;28;20750;-62
2024/03/31 13:46:16;;;;;;;38.10;15.65;;;;;;;18.39;61.32;99361.63;10389394;28;20079;-62
2024/03/31 13:51:17;;;;;;;34.30;15.93;;;;;;;18.44;61.74;99351.81;10405810;28;20047;-65
2024/03/31 13:56:17;;;;;;;41.13;17.17;;;;;;;18.40;61.83;99355.16;10385300;28;20280;-64
2024/03/31 14:01:17;;;;;;;34.70;15.20;;;;;;;18.33;61.83;99343.34;10384281;28;20316;-60
2024/03/31 14:06:18;;;;;;;36.53;13.27;;;;;;;18.24;62.48;99324.66;10396508;28;20120;-62
2024/03/31 14:11:18;;;;;;;36.27;12.97;;;;;;;18.08;61.06;99329.00;10398396;28;20022;-60
2024/03/31 14:16:18;;;;;;;35.95;12.55;;;;;;;17.90;62.14;99314.16;10406241;28;20308;-61
2024/03/31 14:21:19;;;;;;;27.40;12.87;;;;;;;17.82;62.04;99294.31;10402258;28;20064;-60
2024/03/31 14:26:19;;;;;;;32.08;13.00;;;;;;;17.75;61.50;99278.72;10406282;28;20659;-60
2024/03/31 14:31:19;;;;;;;24.87;12.30;;;;;;;17.69;61.21;99266.63;10413288;28;20025;-61
2024/03/31 14:36:20;;;;;;;27.03;12.07;;;;;;;17.61;61.96;99261.28;10406784;28;20659;-60
2024/03/31 14:41:21;;;;;;;25.42;11.95;;;;;;;17.56;62.32;99270.31;10406176;28;20276;-60
2024/03/31 14:46:21;;;;;;;22.77;10.43;;;;;;;17.56;61.82;99258.81;10406388;28;20034;-59
2024/03/31 14:51:22;;;;;;;26.00;12.20;;;;;;;17.54;61.55;99253.78;10413056;28;20017;-61
2024/03/31 14:56:22;;;;;;;18.03;10.97;;;;;;;17.53;60.79;99254.88;10413512;28;20395;-60
2024/03/31 15:01:22;;;;;;;18.97;9.73;;;;;;;17.49;61.50;99233.28;10393930;28;20025;-60
2024/03/31 15:06:23;;;;;;;27.00;10.00;;;;;;;17.46;61.41;99231.25;10412240;28;20292;-60
2024/03/31 15:11:23;;;;;;;21.53;10.80;;;;;;;17.50;60.10;99226.81;10411693;28;20328;-59
2024/03/31 15:16:23;;;;;;;19.75;9.82;;;;;;;17.75;60.25;99224.31;10412682;28;20813;-58
2024/03/31 15:21:24;;;;;;;14.43;7.87;;;;;;;17.93;60.43;99220.41;10411895;28;20029;-59
2024/03/31 15:26:24;;;;;;;18.37;10.00;;;;;;;17.97;60.01;99207.91;10412255;28;20164;-60
2024/03/31 15:31:24;;;;;;;17.43;8.63;;;;;;;17.99;60.82;99211.06;10400430;28;20992;-60
2024/03/31 15:36:25;;;;;;;17.40;9.23;;;;;;;18.01;60.39;99208.06;10412471;28;20710;-61
2024/03/31 15:41:25;;;;;;;20.17;9.87;;;;;;;18.07;60.80;99199.47;10411651;28;20276;-63
2024/03/31 15:46:25;;;;;;;19.55;9.45;;;;;;;18.13;62.47;99186.66;10410400;28;20313;-59
2024/03/31 15:51:26;;;;;;;20.13;9.73;;;;;;;18.28;62.87;99183.38;10427748;28;20088;-58
2024/03/31 15:56:26;;;;;;;21.93;10.30;;;;;;;18.38;62.65;99155.34;10431717;28;20863;-57
2024/03/31 16:01:27;;;;;;;22.02;11.93;;;;;;;18.47;63.76;99163.28;10427162;28;20272;-59
2024/03/31 16:06:27;;;;;;;24.57;11.10;;;;;;;18.51;64.54;99167.66;10447960;28;20029;-59
2024/03/31 16:11:27;;;;;;;18.43;9.57;;;;;;;18.57;65.08;99155.59;10429713;28;20287;-58
2024/03/31 16:16:28;;;;;;;19.70;10.03;;;;;;;18.60;64.85;99157.63;10438825;28;20282;-58
2024/03/31 16:21:28;;;;;;;26.45;10.52;;;;;;;18.68;65.17;99146.00;10442184;28;20055;-56
2024/03/31 16:26:28;;;;;;;23.77;10.80;;;;;;;18.74;64.71;99151.19;10424761;28;20052;-57
2024/03/31 16:31:29;;;;;;;23.57;10.63;;;;;;;18.76;65.32;99154.31;10397751;28;20272;-59
2024/03/31 16:36:29;;;;;;;23.80;12.20;;;;;;;19.03;65.44;99172.44;10400817;28;20387;-59
2024/03/31 16:41:29;;;;;;;22.67;10.00;;;;;;;19.26;64.54;99170.88;10409373;28;20601;-60
2024/03/31 16:46:29;;;;;;;17.83;10.23;;;;;;;19.38;64.04;99204.25;10409571;28;20300;-61
2024/03/31 16:51:30;;;;;;;22.60;9.43;;;;;;;19.12;65.44;99234.91;10426581;28;20420;-59
2024/03/31 16:56:31;;;;;;;23.87;10.37;;;;;;;19.04;64.77;99245.75;10417751;28;20290;-64
2024/03/31 17:01:31;;;;;;;19.33;9.52;;;;;;;19.08;65.12;99285.06;10408395;28;20288;-61
2024/03/31 17:06:31;;;;;;;21.90;10.03;;;;;;;19.06;64.61;99300.75;10409106;28;20021;-57
2024/03/31 17:11:31;;;;;;;18.67;8.67;;;;;;;19.04;64.09;99233.09;10389278;28;20394;-59
2024/03/31 17:16:34;;;;;;;22.55;8.98;;;;;;;18.90;63.99;99257.59;10407652;28;20268;-60
2024/03/31 17:21:35;;;;;;;16.60;8.23;;;;;;;18.87;63.95;99255.59;10408346;28;20030;-60
2024/03/31 17:26:35;;;;;;;24.00;7.73;;;;;;;18.83;63.99;99253.91;10409166;28;20038;-63
2024/03/31 17:31:35;;;;;;;26.80;8.50;;;;;;;18.70;63.79;99248.47;10416183;28;20029;-60
2024/03/31 17:36:39;;;;;;;18.48;7.72;;;;;;;18.56;63.75;99245.28;10408416;28;20279;-60
2024/03/31 17:41:39;;;;;;;24.83;7.57;;;;;;;18.48;64.00;99240.81;10408731;28;20109;-68
2024/03/31 17:46:40;;;;;;;14.88;7.15;;;;;;;18.42;63.83;99236.75;10390956;28;20456;-61
2024/03/31 17:51:40;;;;;;;14.27;7.13;;;;;;;18.33;63.53;99236.81;10418015;28;20036;-61
2024/03/31 17:56:40;;;;;;;15.38;6.78;;;;;;;18.27;64.47;99235.47;10401578;28;20036;-61
2024/03/31 18:01:41;;;;;;;15.53;6.90;;;;;;;18.21;64.28;99231.38;10413311;28;20131;-61
2024/03/31 18:06:43;;;;;;;13.70;5.97;;;;;;;18.18;63.65;99231.28;10422869;28;20842;-61
2024/03/31 18:11:43;;;;;;;17.02;8.77;;;;;;;18.12;63.67;99228.03;10419063;28;20295;-61
2024/03/31 18:16:43;;;;;;;17.20;6.55;;;;;;;18.14;63.19;99222.31;10406972;28;20475;-61
2024/03/31 18:21:44;;;;;;;16.30;6.13;;;;;;;18.13;62.66;99234.94;10401035;28;20029;-62
2024/03/31 18:26:44;;;;;;;17.57;6.13;;;;;;;18.12;64.07;99233.38;10397209;28;20370;-61
2024/03/31 18:31:44;;;;;;;18.07;6.97;;;;;;;18.08;63.09;99229.78;10415465;28;20330;-61
2024/03/31 18:36:45;;;;;;;23.60;5.57;;;;;;;18.05;62.79;99225.84;10416762;28;20731;-62
2024/03/31 18:41:45;;;;;;;13.77;5.40;;;;;;;18.02;63.71;99215.00;10418465;28;20021;-63
2024/03/31 18:46:46;;;;;;;13.20;6.37;;;;;;;18.04;63.07;99216.22;10422952;28;20702;-61
2024/03/31 18:51:47;;;;;;;8.77;4.40;;;;;;;18.04;63.20;99224.28;10427894;28;20295;-63
2024/03/31 18:56:48;;;;;;;10.57;4.47;;;;;;;17.97;62.95;99221.31;10421598;28;20022;-62
2024/03/31 19:01:48;;;;;;;6.63;3.87;;;;;;;17.93;62.95;99236.50;10413093;28;20029;-63
2024/03/31 19:06:48;;;;;;;10.05;4.78;;;;;;;17.98;63.11;99228.25;10411756;28;20292;-63
2024/03/31 19:11:49;;;;;;;9.97;4.80;;;;;;;17.96;62.97;99243.91;10393143;28;20065;-62
2024/03/31 19:16:49;;;;;;;7.43;4.50;;;;;;;17.90;63.11;99244.44;10413285;28;20736;-63
2024/03/31 19:21:51;;;;;;;12.85;4.95;;;;;;;17.89;62.90;99243.66;10426657;28;20280;-63
2024/03/31 19:26:51;;;;;;;9.07;3.85;;;;;;;17.86;61.73;99256.91;10426054;28;20018;-63
2024/03/31 19:31:53;;;;;;;7.47;3.87;;;;;;;17.80;62.71;99240.22;10418924;28;20277;-63
2024/03/31 19:36:54;;;;;;;10.60;4.25;;;;;;;17.76;61.77;99253.50;10412244;28;20311;-63
2024/03/31 19:41:54;;;;;;;8.23;4.80;;;;;;;17.74;63.36;99247.66;10410472;28;20033;-63
2024/03/31 19:46:54;;;;;;;9.93;4.50;;;;;;;17.71;61.94;99259.03;10409440;28;20288;-63
2024/03/31 19:51:57;;;;;;;8.90;4.37;;;;;;;17.70;62.49;99257.47;10412869;28;20283;-63
2024/03/31 19:56:58;;;;;;;7.43;4.55;;;;;;;17.67;62.83;99254.63;10412064;28;20299;-63
2024/03/31 20:01:58;;;;;;;6.53;4.10;;;;;;;17.66;63.27;99245.03;10412684;28;20064;-63
2024/03/31 20:06:58;;;;;;;7.73;4.60;;;;;;;17.66;62.49;99248.50;10394300;28;20125;-63
2024/03/31 20:11:59;;;;;;;12.00;5.37;;;;;;;17.64;63.03;99240.00;10411787;28;20300;-63
2024/03/31 20:17:00;;;;;;;8.07;4.63;;;;;;;17.64;62.15;99242.69;10411560;28;20272;-62
2024/03/31 20:22:00;;;;;;;7.57;4.55;;;;;;;17.62;62.20;99238.72;10411895;28;20080;-62
2024/03/31 20:27:00;;;;;;;7.17;4.80;;;;;;;17.60;61.78;99231.03;10411206;28;20032;-62
2024/03/31 20:32:01;;;;;;;8.33;5.00;;;;;;;17.60;61.42;99227.56;10411387;28;20307;-63
2024/03/31 20:37:04;;;;;;;6.95;4.40;;;;;;;17.59;62.19;99225.97;10411095;28;20022;-63
2024/03/31 20:42:04;;;;;;;7.78;5.07;;;;;;;17.58;62.69;99235.13;10411196;28;20059;-63
2024/03/31 20:47:05;;;;;;;10.32;5.18;;;;;;;17.57;61.43;99229.00;10410387;28;20033;-63
2024/03/31 20:52:05;;;;;;;11.43;6.10;;;;;;;17.56;62.32;99227.44;10410865;28;20032;-62
2024/03/31 20:57:05;;;;;;;13.33;5.50;;;;;;;17.56;61.93;99226.63;10410349;28;20024;-63
2024/03/31 21:02:05;;;;;;;7.13;4.63;;;;;;;17.54;62.57;99226.97;10410494;28;21102;-62
2024/03/31 21:07:06;;;;;;;7.93;5.37;;;;;;;17.54;62.19;99222.41;10409802;28;20338;-63
2024/03/31 21:12:06;;;;;;;7.80;5.50;;;;;;;17.54;61.49;99221.59;10409767;28;20798;-63
2024/03/31 21:17:07;;;;;;;9.32;5.80;;;;;;;17.52;62.84;99226.47;10409789;28;20267;-62
2024/03/31 21:22:07;;;;;;;12.13;6.18;;;;;;;17.51;62.63;99212.31;10409585;28;20413;-62
2024/03/31 21:27:08;;;;;;;8.83;5.80;;;;;;;17.50;62.41;99216.09;10409434;28;20025;-62
2024/03/31 21:32:09;;;;;;;6.22;4.57;;;;;;;17.49;61.68;99206.50;10417723;28;20280;-64
2024/03/31 21:37:09;;;;;;;9.10;5.43;;;;;;;17.48;61.47;99188.06;10408915;28;20018;-63
2024/03/31 21:42:09;;;;;;;9.73;5.03;;;;;;;17.47;62.37;99186.50;10409172;28;20302;-63
2024/03/31 21:47:10;;;;;;;8.70;5.87;;;;;;;17.47;61.72;99184.59;10408490;28;20299;-62
2024/03/31 21:52:10;;;;;;;7.70;5.43;;;;;;;17.47;61.96;99176.56;10408851;28;20284;-63
2024/03/31 21:57:10;;;;;;;9.57;5.37;;;;;;;17.47;61.71;99165.84;10410653;28;20731;-63
2024/03/31 22:02:11;;;;;;;7.13;5.40;;;;;;;17.46;62.30;99169.63;10416101;28;20338;-63
2024/03/31 22:07:11;;;;;;;8.15;5.10;;;;;;;17.48;61.89;99174.66;10416857;28;20652;-62
2024/03/31 22:12:11;;;;;;;7.15;5.88;;;;;;;17.49;62.24;99185.03;10416560;28;20065;-62
2024/03/31 22:17:12;;;;;;;6.75;5.15;;;;;;;17.52;61.51;99202.38;10415936;28;20040;-62
2024/03/31 22:22:12;;;;;;;8.40;6.15;;;;;;;17.56;60.51;99199.84;10416376;28;20037;-62
2024/03/31 22:27:13;;;;;;;7.72;5.55;;;;;;;17.56;61.17;99178.41;10398286;28;20493;-63
2024/03/31 22:32:13;;;;;;;6.93;5.53;;;;;;;17.53;60.97;99177.94;10424142;28;20662;-63
2024/03/31 22:37:13;;;;;;;7.77;5.60;;;;;;;17.52;61.37;99160.31;10415571;28;20469;-62
2024/03/31 22:42:14;;;;;;;7.17;5.67;;;;;;;17.50;60.12;99173.22;10416050;28;20057;-64
2024/03/31 22:47:14;;;;;;;7.93;6.43;;;;;;;17.47;61.21;99179.22;10415186;28;20643;-63
2024/03/31 22:52:14;;;;;;;9.68;6.80;;;;;;;17.46;60.52;99203.69;10415347;28;20295;-63
2024/03/31 22:57:15;;;;;;;6.90;5.67;;;;;;;17.45;60.88;99200.22;10414532;28;20017;-63
2024/03/31 23:02:15;;;;;;;7.47;5.33;;;;;;;17.46;61.59;99209.03;10397393;28;20284;-62
2024/03/31 23:07:16;;;;;;;6.78;5.28;;;;;;;17.44;60.69;99198.66;10414209;28;20379;-63
2024/03/31 23:12:16;;;;;;;9.93;5.78;;;;;;;17.44;60.20;99203.22;10377997;28;20425;-63